createdAt,value
2024-02-29T00:00:16.448Z,100596.47
2024-02-29T00:01:07.290Z,100595.31
2024-02-29T00:01:58.818Z,100592.41
2024-02-29T00:02:49.832Z,100594.88
2024-02-29T00:03:40.682Z,100590.00
2024-02-29T00:04:32.959Z,100594.59
2024-02-29T00:05:26.204Z,100585.72
2024-02-29T00:06:16.856Z,100595.25
2024-02-29T00:07:07.912Z,100589.41
2024-02-29T00:07:58.733Z,100586.88
2024-02-29T00:08:50.140Z,100586.88
2024-02-29T00:09:41.106Z,100584.03
2024-02-29T00:10:32.018Z,100587.47
2024-02-29T00:11:22.925Z,100587.41
2024-02-29T00:12:13.750Z,100589.28
2024-02-29T00:13:04.877Z,100585.13
2024-02-29T00:13:55.929Z,100591.16
2024-02-29T00:14:46.381Z,100590.44
2024-02-29T00:15:37.326Z,100587.00
2024-02-29T00:16:28.219Z,100586.88
2024-02-29T00:17:22.550Z,100587.53
2024-02-29T00:18:13.809Z,100594.59
2024-02-29T00:19:05.096Z,100593.75
2024-02-29T00:19:55.801Z,100597.25
2024-02-29T00:20:46.618Z,100596.53
2024-02-29T00:21:39.456Z,100598.16
2024-02-29T00:22:31.498Z,100598.94
2024-02-29T00:23:22.367Z,100594.66
2024-02-29T00:24:13.419Z,100593.81
2024-02-29T00:25:04.513Z,100595.56
2024-02-29T00:25:55.647Z,100594.53
2024-02-29T00:26:46.756Z,100587.66
2024-02-29T00:27:37.314Z,100595.38
2024-02-29T00:28:28.255Z,100604.78
2024-02-29T00:29:19.176Z,100598.69
2024-02-29T00:30:11.445Z,100595.19
2024-02-29T00:31:02.539Z,100594.78
2024-02-29T00:31:53.692Z,100596.66
2024-02-29T00:32:44.447Z,100593.28
2024-02-29T00:33:35.335Z,100593.47
2024-02-29T00:34:26.123Z,100593.41
2024-02-29T00:35:17.151Z,100594.00
2024-02-29T00:36:10.102Z,100594.59
2024-02-29T00:37:01.601Z,100593.22
2024-02-29T00:37:52.626Z,100594.25
2024-02-29T00:38:43.578Z,100589.13
2024-02-29T00:39:34.455Z,100594.19
2024-02-29T00:40:25.425Z,100600.94
2024-02-29T00:41:16.518Z,100597.75
2024-02-29T00:42:07.169Z,100601.00
2024-02-29T00:42:57.785Z,100599.06
2024-02-29T00:43:48.792Z,100600.81
2024-02-29T00:44:39.734Z,100604.44
2024-02-29T00:45:30.595Z,100600.88
2024-02-29T00:46:21.342Z,100606.31
2024-02-29T00:47:13.061Z,100596.66
2024-02-29T00:48:04.131Z,100592.31
2024-02-29T00:48:55.101Z,100594.31
2024-02-29T00:49:45.924Z,100581.69
2024-02-29T00:50:37.011Z,100583.88
2024-02-29T00:51:28.082Z,100582.44
2024-02-29T00:52:18.825Z,100583.63
2024-02-29T00:53:09.723Z,100582.78
2024-02-29T00:54:00.607Z,100579.72
2024-02-29T00:54:51.444Z,100588.38
2024-02-29T00:55:42.360Z,100583.22
2024-02-29T00:56:33.351Z,100579.78
2024-02-29T00:57:24.449Z,100584.13
2024-02-29T00:58:15.261Z,100584.00
2024-02-29T00:59:06.138Z,100581.88
2024-02-29T00:59:57.004Z,100581.19
2024-02-29T01:00:49.533Z,100584.59
2024-02-29T01:01:40.334Z,100579.59
2024-02-29T01:02:31.092Z,100583.91
2024-02-29T01:03:21.960Z,100582.50
2024-02-29T01:04:12.703Z,100581.22
2024-02-29T01:05:04.338Z,100577.50
2024-02-29T01:05:55.633Z,100583.50
2024-02-29T01:06:46.621Z,100581.06
2024-02-29T01:07:37.853Z,100581.97
2024-02-29T01:08:28.664Z,100577.84
2024-02-29T01:09:21.456Z,100580.13
2024-02-29T01:10:15.386Z,100573.09
2024-02-29T01:11:06.781Z,100577.44
2024-02-29T01:11:58.033Z,100580.22
2024-02-29T01:12:48.960Z,100576.16
2024-02-29T01:13:39.778Z,100574.41
2024-02-29T01:14:30.914Z,100572.75
2024-02-29T01:15:21.821Z,100574.09
2024-02-29T01:16:12.729Z,100578.31
2024-02-29T01:17:03.520Z,100573.16
2024-02-29T01:17:54.400Z,100573.09
2024-02-29T01:18:45.455Z,100575.88
2024-02-29T01:19:36.417Z,100573.22
2024-02-29T01:20:27.234Z,100569.97
2024-02-29T01:21:18.205Z,100558.63
2024-02-29T01:22:09.135Z,100561.94
2024-02-29T01:22:59.988Z,100565.19
2024-02-29T01:23:50.779Z,100564.53
2024-02-29T01:24:41.799Z,100564.03
2024-02-29T01:25:32.688Z,100559.91
2024-02-29T01:26:23.561Z,100557.38
2024-02-29T01:27:14.515Z,100551.88
2024-02-29T01:28:05.822Z,100555.44
2024-02-29T01:28:57.385Z,100556.34
2024-02-29T01:29:48.471Z,100553.97
2024-02-29T01:30:39.464Z,100556.34
2024-02-29T01:31:30.308Z,100553.19
2024-02-29T01:32:26.508Z,100562.00
2024-02-29T01:33:19.146Z,100552.19
2024-02-29T01:34:10.038Z,100548.78
2024-02-29T01:35:00.881Z,100554.06
2024-02-29T01:35:51.780Z,100547.13
2024-02-29T01:36:45.714Z,100550.59
2024-02-29T01:37:36.430Z,100548.09
2024-02-29T01:38:27.161Z,100543.78
2024-02-29T01:39:18.942Z,100549.94
2024-02-29T01:40:10.445Z,100544.09
2024-02-29T01:41:01.226Z,100543.44
2024-02-29T01:41:52.157Z,100544.09
2024-02-29T01:42:43.152Z,100535.56
2024-02-29T01:43:33.943Z,100536.56
2024-02-29T01:44:24.738Z,100533.94
2024-02-29T01:45:17.762Z,100531.34
2024-02-29T01:46:15.510Z,100528.84
2024-02-29T01:47:07.941Z,100535.66
2024-02-29T01:48:00.858Z,100537.38
2024-02-29T01:48:53.103Z,100524.16
2024-02-29T01:49:44.844Z,100527.78
2024-02-29T01:50:37.336Z,100522.84
2024-02-29T01:51:28.733Z,100515.81
2024-02-29T01:52:21.324Z,100515.66
2024-02-29T01:53:12.399Z,100518.44
2024-02-29T01:54:03.403Z,100508.69
2024-02-29T01:54:54.188Z,100515.00
2024-02-29T01:55:45.160Z,100516.47
2024-02-29T01:56:36.197Z,100512.53
2024-02-29T01:57:27.806Z,100517.91
2024-02-29T01:58:19.370Z,100514.47
2024-02-29T01:59:11.092Z,100522.34
2024-02-29T02:00:03.877Z,100517.25
2024-02-29T02:00:55.047Z,100522.34
2024-02-29T02:01:45.918Z,100525.66
2024-02-29T02:02:39.444Z,100526.56
2024-02-29T02:03:31.057Z,100525.66
2024-02-29T02:04:21.655Z,100519.00
2024-02-29T02:05:12.697Z,100511.22
2024-02-29T02:06:03.394Z,100513.50
2024-02-29T02:06:57.640Z,100512.59
2024-02-29T02:07:49.405Z,100517.06
2024-02-29T02:08:39.955Z,100517.59
2024-02-29T02:09:30.960Z,100513.31
2024-02-29T02:10:22.816Z,100519.56
2024-02-29T02:11:13.989Z,100517.25
2024-02-29T02:12:05.110Z,100521.47
2024-02-29T02:12:55.968Z,100511.00
2024-02-29T02:13:47.146Z,100512.84
2024-02-29T02:14:41.531Z,100513.72
2024-02-29T02:15:32.242Z,100508.31
2024-02-29T02:16:23.053Z,100514.53
2024-02-29T02:17:14.244Z,100502.53
2024-02-29T02:18:05.174Z,100509.03
2024-02-29T02:18:56.607Z,100508.81
2024-02-29T02:19:48.560Z,100502.03
2024-02-29T02:20:39.408Z,100501.91
2024-02-29T02:21:30.531Z,100502.88
2024-02-29T02:22:21.340Z,100498.56
2024-02-29T02:23:12.272Z,100505.53
2024-02-29T02:24:03.258Z,100502.28
2024-02-29T02:24:54.206Z,100489.38
2024-02-29T02:25:45.043Z,100492.59
2024-02-29T02:26:36.054Z,100493.47
2024-02-29T02:27:26.991Z,100494.56
2024-02-29T02:28:18.044Z,100483.03
2024-02-29T02:29:09.037Z,100484.88
2024-02-29T02:30:00.218Z,100480.53
2024-02-29T02:30:50.966Z,100482.41
2024-02-29T02:31:41.788Z,100484.69
2024-02-29T02:32:32.736Z,100487.28
2024-02-29T02:33:23.571Z,100481.19
2024-02-29T02:34:14.846Z,100483.69
2024-02-29T02:35:05.988Z,100492.22
2024-02-29T02:35:57.044Z,100489.75
2024-02-29T02:36:48.656Z,100493.09
2024-02-29T02:37:39.765Z,100493.75
2024-02-29T02:38:30.560Z,100493.66
2024-02-29T02:39:21.060Z,100491.25
2024-02-29T02:40:12.318Z,100495.56
2024-02-29T02:41:03.463Z,100490.13
2024-02-29T02:41:54.304Z,100487.00
2024-02-29T02:42:47.521Z,100483.56
2024-02-29T02:43:38.169Z,100487.78
2024-02-29T02:44:29.203Z,100478.56
2024-02-29T02:45:19.746Z,100484.81
2024-02-29T02:46:10.739Z,100481.94
2024-02-29T02:47:01.644Z,100487.91
2024-02-29T02:47:52.577Z,100467.22
2024-02-29T02:48:43.612Z,100473.50
2024-02-29T02:49:34.308Z,100468.44
2024-02-29T02:50:25.959Z,100468.50
2024-02-29T02:51:16.714Z,100468.50
2024-02-29T02:52:07.475Z,100466.75
2024-02-29T02:52:58.334Z,100469.16
2024-02-29T02:53:49.238Z,100471.88
2024-02-29T02:54:41.000Z,100474.34
2024-02-29T02:55:32.009Z,100462.19
2024-02-29T02:56:22.644Z,100467.47
2024-02-29T02:57:13.784Z,100464.09
2024-02-29T02:58:05.047Z,100467.66
2024-02-29T02:58:56.010Z,100465.00
2024-02-29T02:59:46.935Z,100465.13
2024-02-29T03:00:38.024Z,100463.28
2024-02-29T03:01:30.050Z,100464.09
2024-02-29T03:02:20.537Z,100466.88
2024-02-29T03:03:11.497Z,100464.31
2024-02-29T03:04:02.632Z,100463.66
2024-02-29T03:04:53.608Z,100459.53
2024-02-29T03:05:44.772Z,100457.66
2024-02-29T03:06:35.740Z,100456.34
2024-02-29T03:07:26.869Z,100460.72
2024-02-29T03:08:17.457Z,100463.50
2024-02-29T03:09:09.132Z,100460.84
2024-02-29T03:10:00.365Z,100458.94
2024-02-29T03:10:51.618Z,100452.84
2024-02-29T03:11:42.492Z,100456.25
2024-02-29T03:12:33.434Z,100456.56
2024-02-29T03:13:24.277Z,100452.28
2024-02-29T03:14:16.255Z,100457.81
2024-02-29T03:15:07.823Z,100451.75
2024-02-29T03:15:58.697Z,100448.38
2024-02-29T03:16:49.406Z,100455.13
2024-02-29T03:17:40.432Z,100446.31
2024-02-29T03:18:31.286Z,100445.50
2024-02-29T03:19:22.253Z,100440.19
2024-02-29T03:20:15.877Z,100443.50
2024-02-29T03:21:07.263Z,100444.66
2024-02-29T03:21:58.478Z,100444.66
2024-02-29T03:22:49.640Z,100439.22
2024-02-29T03:23:40.653Z,100441.22
2024-02-29T03:24:31.521Z,100441.88
2024-02-29T03:25:22.516Z,100441.03
2024-02-29T03:26:13.322Z,100444.53
2024-02-29T03:27:04.214Z,100448.75
2024-02-29T03:27:55.613Z,100442.06
2024-02-29T03:28:46.478Z,100439.16
2024-02-29T03:29:37.325Z,100441.63
2024-02-29T03:30:28.381Z,100439.88
2024-02-29T03:31:19.754Z,100446.69
2024-02-29T03:32:11.540Z,100439.03
2024-02-29T03:33:02.672Z,100445.91
2024-02-29T03:33:53.911Z,100451.03
2024-02-29T03:34:44.728Z,100445.06
2024-02-29T03:35:35.871Z,100446.75
2024-02-29T03:36:28.481Z,100452.16
2024-02-29T03:37:19.675Z,100444.28
2024-02-29T03:38:10.615Z,100445.44
2024-02-29T03:39:01.378Z,100451.50
2024-02-29T03:39:52.131Z,100447.13
2024-02-29T03:40:43.741Z,100446.44
2024-02-29T03:41:34.569Z,100447.13
2024-02-29T03:42:25.167Z,100451.16
2024-02-29T03:43:16.120Z,100442.84
2024-02-29T03:44:07.028Z,100444.19
2024-02-29T03:44:58.395Z,100440.41
2024-02-29T03:45:49.407Z,100441.31
2024-02-29T03:46:40.342Z,100438.69
2024-02-29T03:47:31.471Z,100441.63
2024-02-29T03:48:22.179Z,100439.16
2024-02-29T03:49:13.309Z,100447.81
2024-02-29T03:50:04.490Z,100438.50
2024-02-29T03:50:55.109Z,100442.72
2024-02-29T03:51:45.805Z,100434.69
2024-02-29T03:52:36.920Z,100443.38
2024-02-29T03:53:27.646Z,100431.31
2024-02-29T03:54:18.461Z,100429.59
2024-02-29T03:55:10.463Z,100429.47
2024-02-29T03:56:01.806Z,100432.72
2024-02-29T03:56:52.592Z,100436.31
2024-02-29T03:57:43.395Z,100431.09
2024-02-29T03:58:34.285Z,100431.31
2024-02-29T03:59:26.172Z,100431.28
2024-02-29T04:00:17.014Z,100438.13
2024-02-29T04:01:11.703Z,100435.22
2024-02-29T04:02:03.191Z,100435.44
2024-02-29T04:02:53.963Z,100433.50
2024-02-29T04:03:45.704Z,100436.50
2024-02-29T04:04:36.605Z,100433.72
2024-02-29T04:05:27.603Z,100433.88
2024-02-29T04:06:18.388Z,100434.47
2024-02-29T04:07:09.348Z,100433.88
2024-02-29T04:08:04.821Z,100429.66
2024-02-29T04:08:56.045Z,100430.47
2024-02-29T04:09:46.796Z,100430.31
2024-02-29T04:10:47.386Z,100430.13
2024-02-29T04:11:38.690Z,100426.75
2024-02-29T04:12:29.634Z,100421.81
2024-02-29T04:13:20.604Z,100432.38
2024-02-29T04:14:11.544Z,100425.44
2024-02-29T04:15:02.838Z,100425.31
2024-02-29T04:15:53.893Z,100425.00
2024-02-29T04:16:44.685Z,100423.06
2024-02-29T04:17:35.655Z,100421.69
2024-02-29T04:18:26.519Z,100420.06
2024-02-29T04:19:17.859Z,100421.75
2024-02-29T04:20:09.824Z,100424.34
2024-02-29T04:21:00.896Z,100419.41
2024-02-29T04:21:54.091Z,100421.09
2024-02-29T04:22:45.129Z,100412.34
2024-02-29T04:23:36.123Z,100420.44
2024-02-29T04:24:27.433Z,100420.22
2024-02-29T04:25:18.053Z,100426.28
2024-02-29T04:26:08.904Z,100421.22
2024-02-29T04:26:59.873Z,100417.72
2024-02-29T04:27:52.254Z,100418.50
2024-02-29T04:28:43.199Z,100420.44
2024-02-29T04:29:34.460Z,100415.38
2024-02-29T04:30:25.158Z,100410.47
2024-02-29T04:31:16.266Z,100415.63
2024-02-29T04:32:08.315Z,100406.13
2024-02-29T04:33:00.054Z,100412.63
2024-02-29T04:33:52.212Z,100413.31
2024-02-29T04:34:43.453Z,100409.41
2024-02-29T04:35:34.976Z,100414.59
2024-02-29T04:36:25.936Z,100417.13
2024-02-29T04:37:17.089Z,100416.22
2024-02-29T04:38:08.168Z,100415.38
2024-02-29T04:38:59.066Z,100415.69
2024-02-29T04:39:50.094Z,100406.16
2024-02-29T04:40:40.885Z,100404.41
2024-02-29T04:41:31.907Z,100407.44
2024-02-29T04:42:22.828Z,100398.69
2024-02-29T04:43:13.601Z,100398.69
2024-02-29T04:44:04.384Z,100404.88
2024-02-29T04:44:55.343Z,100410.47
2024-02-29T04:45:46.358Z,100400.03
2024-02-29T04:46:37.588Z,100404.63
2024-02-29T04:47:28.542Z,100399.44
2024-02-29T04:48:19.320Z,100407.25
2024-02-29T04:49:10.274Z,100408.84
2024-02-29T04:50:01.376Z,100411.34
2024-02-29T04:50:52.003Z,100407.25
2024-02-29T04:51:43.011Z,100409.09
2024-02-29T04:52:33.872Z,100408.56
2024-02-29T04:53:24.854Z,100404.78
2024-02-29T04:54:15.582Z,100407.38
2024-02-29T04:55:06.682Z,100414.19
2024-02-29T04:55:58.283Z,100410.69
2024-02-29T04:56:48.841Z,100413.44
2024-02-29T04:57:39.818Z,100409.19
2024-02-29T04:58:31.153Z,100404.72
2024-02-29T04:59:22.030Z,100402.91
2024-02-29T05:00:14.311Z,100401.16
2024-02-29T05:01:05.710Z,100403.88
2024-02-29T05:01:56.597Z,100409.00
2024-02-29T05:02:47.432Z,100405.75
2024-02-29T05:03:38.341Z,100401.25
2024-02-29T05:04:29.386Z,100401.91
2024-02-29T05:05:20.358Z,100401.28
2024-02-29T05:06:15.513Z,100397.06
2024-02-29T05:07:06.232Z,100401.16
2024-02-29T05:07:57.137Z,100400.69
2024-02-29T05:08:48.441Z,100396.66
2024-02-29T05:09:39.687Z,100400.13
2024-02-29T05:10:30.499Z,100393.13
2024-02-29T05:11:21.577Z,100404.19
2024-02-29T05:12:12.689Z,100395.44
2024-02-29T05:13:03.745Z,100399.91
2024-02-29T05:13:54.598Z,100398.38
2024-02-29T05:14:45.412Z,100398.03
2024-02-29T05:15:37.254Z,100397.53
2024-02-29T05:16:28.474Z,100394.78
2024-02-29T05:17:20.088Z,100402.50
2024-02-29T05:18:11.352Z,100395.78
2024-02-29T05:19:02.346Z,100396.53
2024-02-29T05:19:53.192Z,100392.91
2024-02-29T05:20:44.140Z,100398.09
2024-02-29T05:21:35.010Z,100389.25
2024-02-29T05:22:26.024Z,100394.06
2024-02-29T05:23:16.924Z,100394.13
2024-02-29T05:24:07.857Z,100400.09
2024-02-29T05:24:59.550Z,100397.53
2024-02-29T05:25:50.608Z,100397.13
2024-02-29T05:26:41.208Z,100402.06
2024-02-29T05:27:32.079Z,100394.91
2024-02-29T05:28:22.720Z,100396.53
2024-02-29T05:29:13.647Z,100400.88
2024-02-29T05:30:05.739Z,100399.13
2024-02-29T05:30:57.018Z,100394.06
2024-02-29T05:31:53.180Z,100394.25
2024-02-29T05:32:44.456Z,100400.31
2024-02-29T05:33:35.351Z,100393.03
2024-02-29T05:34:26.390Z,100394.78
2024-02-29T05:35:17.312Z,100393.03
2024-02-29T05:36:08.600Z,100398.59
2024-02-29T05:36:59.325Z,100403.56
2024-02-29T05:37:50.302Z,100399.13
2024-02-29T05:38:41.507Z,100398.22
2024-02-29T05:39:35.102Z,100399.47
2024-02-29T05:40:27.952Z,100394.84
2024-02-29T05:41:19.122Z,100400.88
2024-02-29T05:42:10.648Z,100398.38
2024-02-29T05:43:04.670Z,100394.25
2024-02-29T05:43:55.574Z,100401.19
2024-02-29T05:44:46.694Z,100398.69
2024-02-29T05:45:37.421Z,100391.81
2024-02-29T05:46:30.733Z,100393.50
2024-02-29T05:47:22.072Z,100394.91
2024-02-29T05:48:12.762Z,100390.41
2024-02-29T05:49:03.791Z,100395.75
2024-02-29T05:49:56.121Z,100384.84
2024-02-29T05:50:46.645Z,100386.59
2024-02-29T05:51:37.803Z,100390.91
2024-02-29T05:52:28.518Z,100385.94
2024-02-29T05:53:19.398Z,100389.28
2024-02-29T05:54:10.067Z,100391.34
2024-02-29T05:55:01.292Z,100391.16
2024-02-29T05:55:52.408Z,100388.09
2024-02-29T05:56:43.195Z,100389.06
2024-02-29T05:57:35.688Z,100399.47
2024-02-29T05:58:31.710Z,100386.41
2024-02-29T05:59:22.522Z,100390.41
2024-02-29T06:00:14.153Z,100392.19
2024-02-29T06:01:05.777Z,100391.28
2024-02-29T06:01:56.697Z,100392.44
2024-02-29T06:02:49.905Z,100391.56
2024-02-29T06:03:41.616Z,100390.88
2024-02-29T06:04:32.495Z,100386.31
2024-02-29T06:05:23.644Z,100389.59
2024-02-29T06:06:17.634Z,100392.16
2024-02-29T06:07:08.519Z,100390.63
2024-02-29T06:07:59.423Z,100388.91
2024-02-29T06:08:50.476Z,100389.78
2024-02-29T06:09:42.883Z,100388.41
2024-02-29T06:10:34.003Z,100390.06
2024-02-29T06:11:25.052Z,100392.50
2024-02-29T06:12:16.025Z,100394.25
2024-02-29T06:13:06.991Z,100389.00
2024-02-29T06:13:57.934Z,100381.97
2024-02-29T06:14:48.911Z,100380.09
2024-02-29T06:15:39.808Z,100384.25
2024-02-29T06:16:30.992Z,100382.19
2024-02-29T06:17:22.322Z,100376.50
2024-02-29T06:18:14.634Z,100374.78
2024-02-29T06:19:05.620Z,100372.75
2024-02-29T06:19:56.480Z,100378.59
2024-02-29T06:20:49.316Z,100378.41
2024-02-29T06:21:39.960Z,100378.34
2024-02-29T06:22:30.732Z,100375.69
2024-02-29T06:23:21.723Z,100372.19
2024-02-29T06:24:19.491Z,100373.81
2024-02-29T06:25:11.262Z,100382.00
2024-02-29T06:26:13.022Z,100377.53
2024-02-29T06:27:04.140Z,100368.75
2024-02-29T06:27:54.742Z,100371.66
2024-02-29T06:28:45.680Z,100375.59
2024-02-29T06:29:36.500Z,100376.84
2024-02-29T06:30:33.353Z,100374.78
2024-02-29T06:31:26.767Z,100375.41
2024-02-29T06:32:17.726Z,100366.47
2024-02-29T06:33:08.252Z,100365.94
2024-02-29T06:33:59.368Z,100361.44
2024-02-29T06:34:50.514Z,100362.50
2024-02-29T06:35:41.156Z,100364.75
2024-02-29T06:36:32.050Z,100361.25
2024-02-29T06:37:22.885Z,100355.72
2024-02-29T06:38:13.942Z,100353.19
2024-02-29T06:39:08.963Z,100357.38
2024-02-29T06:39:59.948Z,100360.03
2024-02-29T06:40:50.780Z,100358.22
2024-02-29T06:41:44.998Z,100365.50
2024-02-29T06:42:36.010Z,100357.50
2024-02-29T06:43:28.227Z,100357.44
2024-02-29T06:44:20.215Z,100353.13
2024-02-29T06:45:11.770Z,100357.44
2024-02-29T06:46:06.319Z,100356.84
2024-02-29T06:46:57.000Z,100353.47
2024-02-29T06:47:48.477Z,100358.47
2024-02-29T06:48:40.284Z,100354.63
2024-02-29T06:49:31.700Z,100357.56
2024-02-29T06:50:22.373Z,100357.91
2024-02-29T06:51:13.345Z,100353.69
2024-02-29T06:52:04.319Z,100353.31
2024-02-29T06:52:55.321Z,100350.13
2024-02-29T06:53:46.026Z,100355.88
2024-02-29T06:54:37.149Z,100354.09
2024-02-29T06:55:28.803Z,100353.13
2024-02-29T06:56:19.886Z,100357.63
2024-02-29T06:57:11.143Z,100351.84
2024-02-29T06:58:04.058Z,100355.69
2024-02-29T06:58:54.784Z,100354.31
2024-02-29T06:59:45.849Z,100359.59
2024-02-29T07:00:36.814Z,100354.47
2024-02-29T07:01:28.070Z,100357.56
2024-02-29T07:02:18.991Z,100354.28
2024-02-29T07:03:10.525Z,100354.59
2024-02-29T07:04:01.215Z,100353.22
2024-02-29T07:04:52.101Z,100351.59
2024-02-29T07:05:43.206Z,100349.13
2024-02-29T07:06:35.954Z,100349.22
2024-02-29T07:07:26.949Z,100341.59
2024-02-29T07:08:17.711Z,100344.66
2024-02-29T07:09:08.853Z,100344.38
2024-02-29T07:10:00.009Z,100339.97
2024-02-29T07:10:50.869Z,100344.44
2024-02-29T07:11:41.938Z,100346.06
2024-02-29T07:12:32.865Z,100338.13
2024-02-29T07:13:23.902Z,100335.34
2024-02-29T07:14:15.059Z,100332.81
2024-02-29T07:15:06.664Z,100339.28
2024-02-29T07:15:57.352Z,100330.84
2024-02-29T07:16:48.081Z,100328.06
2024-02-29T07:17:39.192Z,100335.63
2024-02-29T07:18:30.336Z,100325.53
2024-02-29T07:19:21.108Z,100328.50
2024-02-29T07:20:14.507Z,100327.28
2024-02-29T07:21:05.939Z,100328.19
2024-02-29T07:21:56.972Z,100326.16
2024-02-29T07:22:48.302Z,100324.28
2024-02-29T07:23:38.876Z,100328.50
2024-02-29T07:24:30.488Z,100329.56
2024-02-29T07:25:21.672Z,100327.03
2024-02-29T07:26:12.379Z,100328.88
2024-02-29T07:27:03.282Z,100332.88
2024-02-29T07:27:55.990Z,100317.13
2024-02-29T07:28:46.730Z,100321.00
2024-02-29T07:29:37.820Z,100323.63
2024-02-29T07:30:28.839Z,100319.50
2024-02-29T07:31:21.227Z,100323.78
2024-02-29T07:32:12.378Z,100313.34
2024-02-29T07:33:03.356Z,100322.16
2024-02-29T07:33:55.015Z,100320.13
2024-02-29T07:34:45.745Z,100313.22
2024-02-29T07:35:37.039Z,100315.53
2024-02-29T07:36:28.900Z,100318.03
2024-02-29T07:37:19.554Z,100318.22
2024-02-29T07:38:10.424Z,100313.44
2024-02-29T07:39:01.238Z,100313.25
2024-02-29T07:39:52.253Z,100303.94
2024-02-29T07:40:43.300Z,100311.28
2024-02-29T07:41:34.356Z,100307.91
2024-02-29T07:42:24.918Z,100308.97
2024-02-29T07:43:15.628Z,100310.44
2024-02-29T07:44:08.893Z,100313.50
2024-02-29T07:44:59.508Z,100316.81
2024-02-29T07:45:51.301Z,100315.47
2024-02-29T07:46:42.220Z,100308.56
2024-02-29T07:47:32.925Z,100309.63
2024-02-29T07:48:25.643Z,100305.97
2024-02-29T07:49:16.483Z,100307.84
2024-02-29T07:50:07.891Z,100305.94
2024-02-29T07:50:58.685Z,100309.09
2024-02-29T07:51:49.913Z,100310.97
2024-02-29T07:52:40.896Z,100310.88
2024-02-29T07:53:31.828Z,100303.31
2024-02-29T07:54:22.675Z,100304.50
2024-02-29T07:55:15.868Z,100304.41
2024-02-29T07:56:08.115Z,100304.81
2024-02-29T07:56:59.036Z,100298.22
2024-02-29T07:57:50.285Z,100304.19
2024-02-29T07:58:41.068Z,100304.69
2024-02-29T07:59:31.907Z,100295.03
2024-02-29T08:00:22.392Z,100302.97
2024-02-29T08:01:14.453Z,100299.88
2024-02-29T08:02:05.691Z,100295.97
2024-02-29T08:02:56.776Z,100300.03
2024-02-29T08:03:47.849Z,100300.94
2024-02-29T08:04:38.627Z,100298.59
2024-02-29T08:05:29.581Z,100297.06
2024-02-29T08:06:20.380Z,100299.16
2024-02-29T08:07:12.376Z,100301.50
2024-02-29T08:08:03.484Z,100303.38
2024-02-29T08:08:54.476Z,100299.53
2024-02-29T08:09:45.982Z,100295.88
2024-02-29T08:10:36.867Z,100286.78
2024-02-29T08:11:27.792Z,100291.59
2024-02-29T08:12:18.717Z,100281.03
2024-02-29T08:13:09.777Z,100290.34
2024-02-29T08:14:00.848Z,100292.13
2024-02-29T08:14:51.699Z,100292.13
2024-02-29T08:15:42.671Z,100294.81
2024-02-29T08:16:33.442Z,100289.81
2024-02-29T08:17:28.213Z,100287.72
2024-02-29T08:18:19.978Z,100288.16
2024-02-29T08:19:10.984Z,100281.13
2024-02-29T08:20:01.927Z,100281.78
2024-02-29T08:20:52.747Z,100274.59
2024-02-29T08:21:43.696Z,100274.09
2024-02-29T08:22:36.442Z,100279.97
2024-02-29T08:23:27.628Z,100281.06
2024-02-29T08:24:18.432Z,100280.00
2024-02-29T08:25:09.867Z,100274.88
2024-02-29T08:26:00.968Z,100269.41
2024-02-29T08:26:52.003Z,100271.59
2024-02-29T08:27:42.586Z,100272.78
2024-02-29T08:28:33.465Z,100269.94
2024-02-29T08:29:24.462Z,100268.03
2024-02-29T08:30:15.510Z,100270.03
2024-02-29T08:31:07.221Z,100263.03
2024-02-29T08:31:58.346Z,100270.63
2024-02-29T08:32:49.918Z,100276.06
2024-02-29T08:33:40.818Z,100263.50
2024-02-29T08:34:32.104Z,100271.34
2024-02-29T08:35:22.768Z,100263.34
2024-02-29T08:36:14.111Z,100263.84
2024-02-29T08:37:05.001Z,100265.56
2024-02-29T08:37:57.914Z,100257.19
2024-02-29T08:38:49.401Z,100264.13
2024-02-29T08:39:42.600Z,100256.41
2024-02-29T08:40:33.849Z,100258.84
2024-02-29T08:41:25.406Z,100259.78
2024-02-29T08:42:15.896Z,100262.84
2024-02-29T08:43:07.162Z,100256.31
2024-02-29T08:43:57.777Z,100253.81
2024-02-29T08:44:49.975Z,100257.19
2024-02-29T08:45:40.578Z,100248.34
2024-02-29T08:46:31.345Z,100252.66
2024-02-29T08:47:22.151Z,100255.78
2024-02-29T08:48:13.287Z,100256.78
2024-02-29T08:49:04.322Z,100244.44
2024-02-29T08:49:55.313Z,100248.66
2024-02-29T08:50:46.363Z,100252.63
2024-02-29T08:51:37.436Z,100244.28
2024-02-29T08:52:28.820Z,100244.38
2024-02-29T08:53:19.897Z,100247.31
2024-02-29T08:54:11.022Z,100241.44
2024-02-29T08:55:02.162Z,100247.59
2024-02-29T08:55:53.161Z,100241.75
2024-02-29T08:56:44.051Z,100246.75
2024-02-29T08:57:35.666Z,100246.16
2024-02-29T08:58:26.446Z,100238.53
2024-02-29T08:59:18.659Z,100237.97
2024-02-29T09:00:10.641Z,100237.63
2024-02-29T09:01:02.158Z,100232.72
2024-02-29T09:01:54.591Z,100235.72
2024-02-29T09:02:46.147Z,100240.25
2024-02-29T09:03:37.151Z,100236.91
2024-02-29T09:04:30.423Z,100234.63
2024-02-29T09:05:20.988Z,100228.44
2024-02-29T09:06:13.762Z,100235.03
2024-02-29T09:07:04.773Z,100233.94
2024-02-29T09:07:55.671Z,100230.09
2024-02-29T09:08:46.611Z,100232.72
2024-02-29T09:09:37.772Z,100228.09
2024-02-29T09:10:28.965Z,100221.97
2024-02-29T09:11:20.059Z,100224.13
2024-02-29T09:12:11.632Z,100221.50
2024-02-29T09:13:12.070Z,100218.28
2024-02-29T09:14:11.910Z,100219.34
2024-02-29T09:15:03.645Z,100220.81
2024-02-29T09:15:54.350Z,100227.72
2024-02-29T09:16:45.233Z,100219.34
2024-02-29T09:17:36.111Z,100219.09
2024-02-29T09:18:27.109Z,100219.69
2024-02-29T09:19:18.290Z,100215.25
2024-02-29T09:20:09.773Z,100221.34
2024-02-29T09:21:00.420Z,100218.28
2024-02-29T09:21:51.322Z,100215.16
2024-02-29T09:22:42.140Z,100216.69
2024-02-29T09:23:32.933Z,100217.66
2024-02-29T09:24:23.635Z,100217.78
2024-02-29T09:25:14.622Z,100214.53
2024-02-29T09:26:05.638Z,100210.25
2024-02-29T09:26:56.501Z,100203.78
2024-02-29T09:27:47.408Z,100207.59
2024-02-29T09:28:38.232Z,100197.44
2024-02-29T09:29:31.958Z,100202.72
2024-02-29T09:30:25.032Z,100202.19
2024-02-29T09:31:16.003Z,100203.50
2024-02-29T09:32:06.967Z,100199.81
2024-02-29T09:32:58.025Z,100202.91
2024-02-29T09:33:48.951Z,100201.56
2024-02-29T09:34:44.887Z,100193.75
2024-02-29T09:35:38.770Z,100192.78
2024-02-29T09:36:32.314Z,100182.00
2024-02-29T09:37:23.386Z,100177.59
2024-02-29T09:38:14.185Z,100183.75
2024-02-29T09:39:06.533Z,100180.34
2024-02-29T09:39:57.645Z,100171.16
2024-02-29T09:40:52.575Z,100173.16
2024-02-29T09:42:08.155Z,100187.78
2024-02-29T09:43:01.929Z,100184.06
2024-02-29T09:43:54.676Z,100184.16
2024-02-29T09:44:47.657Z,100177.25
2024-02-29T09:45:41.884Z,100174.81
2024-02-29T09:46:32.903Z,100174.59